sensor_id;sensor_type;location;lat;lon;timestamp;P1;durP1;ratioP1;P2;durP2;ratioP2
36989;SDS011;22898;52.102;5.776;2022-11-04T00:01:48;6.22;;;1.38;;
36989;SDS011;22898;52.102;5.776;2022-11-04T00:04:15;1.50;;;1.38;;
36989;SDS011;22898;52.102;5.776;2022-11-04T00:06:42;1.48;;;1.38;;
36989;SDS011;22898;52.102;5.776;2022-11-04T00:09:09;1.33;;;1.17;;
36989;SDS011;22898;52.102;5.776;2022-11-04T00:11:37;1.77;;;1.63;;
36989;SDS011;22898;52.102;5.776;2022-11-04T00:14:21;1.33;;;1.20;;
36989;SDS011;22898;52.102;5.776;2022-11-04T00:16:47;1.23;;;1.20;;
36989;SDS011;22898;52.102;5.776;2022-11-04T00:19:31;1.38;;;1.23;;
36989;SDS011;22898;52.102;5.776;2022-11-04T00:22:17;2.00;;;1.70;;
36989;SDS011;22898;52.102;5.776;2022-11-04T00:25:02;1.75;;;1.65;;
36989;SDS011;22898;52.102;5.776;2022-11-04T00:27:46;1.10;;;1.00;;
36989;SDS011;22898;52.102;5.776;2022-11-04T00:30:30;1.92;;;1.73;;
36989;SDS011;22898;52.102;5.776;2022-11-04T00:32:55;1.40;;;1.27;;
36989;SDS011;22898;52.102;5.776;2022-11-04T00:35:39;1.75;;;1.58;;
36989;SDS011;22898;52.102;5.776;2022-11-04T00:38:05;2.05;;;1.35;;
36989;SDS011;22898;52.102;5.776;2022-11-04T00:40:30;1.30;;;1.20;;
36989;SDS011;22898;52.102;5.776;2022-11-04T00:42:56;3.25;;;1.38;;
36989;SDS011;22898;52.102;5.776;2022-11-04T00:45:22;1.50;;;1.40;;
36989;SDS011;22898;52.102;5.776;2022-11-04T00:47:47;1.48;;;1.38;;
36989;SDS011;22898;52.102;5.776;2022-11-04T00:50:13;1.30;;;1.20;;
36989;SDS011;22898;52.102;5.776;2022-11-04T00:52:38;0.90;;;0.90;;
36989;SDS011;22898;52.102;5.776;2022-11-04T00:55:04;1.15;;;1.05;;
36989;SDS011;22898;52.102;5.776;2022-11-04T00:57:30;2.80;;;1.83;;
36989;SDS011;22898;52.102;5.776;2022-11-04T00:59:56;2.60;;;1.30;;
36989;SDS011;22898;52.102;5.776;2022-11-04T01:02:22;1.73;;;1.52;;
36989;SDS011;22898;52.102;5.776;2022-11-04T01:04:47;1.55;;;1.42;;
36989;SDS011;22898;52.102;5.776;2022-11-04T01:07:13;2.08;;;1.90;;
36989;SDS011;22898;52.102;5.776;2022-11-04T01:09:39;2.28;;;1.38;;
36989;SDS011;22898;52.102;5.776;2022-11-04T01:12:04;1.58;;;1.48;;
36989;SDS011;22898;52.102;5.776;2022-11-04T01:14:30;1.55;;;1.42;;
36989;SDS011;22898;52.102;5.776;2022-11-04T01:16:56;1.50;;;1.40;;
36989;SDS011;22898;52.102;5.776;2022-11-04T01:19:21;1.45;;;1.35;;
36989;SDS011;22898;52.102;5.776;2022-11-04T01:21:51;1.67;;;1.17;;
36989;SDS011;22898;52.102;5.776;2022-11-04T01:24:17;0.85;;;0.85;;
36989;SDS011;22898;52.102;5.776;2022-11-04T01:26:43;1.55;;;1.45;;
36989;SDS011;22898;52.102;5.776;2022-11-04T01:29:09;0.80;;;0.80;;
36989;SDS011;22898;52.102;5.776;2022-11-04T01:31:34;1.20;;;1.10;;
36989;SDS011;22898;52.102;5.776;2022-11-04T01:34:00;1.58;;;1.40;;
36989;SDS011;22898;52.102;5.776;2022-11-04T01:36:26;0.70;;;0.70;;
36989;SDS011;22898;52.102;5.776;2022-11-04T01:38:53;0.77;;;0.77;;
36989;SDS011;22898;52.102;5.776;2022-11-04T01:41:27;0.80;;;0.80;;
36989;SDS011;22898;52.102;5.776;2022-11-04T01:43:56;0.73;;;0.73;;
36989;SDS011;22898;52.102;5.776;2022-11-04T01:49:00;0.93;;;0.93;;
36989;SDS011;22898;52.102;5.776;2022-11-04T01:51:33;1.27;;;1.00;;
36989;SDS011;22898;52.102;5.776;2022-11-04T01:54:01;0.80;;;0.80;;
36989;SDS011;22898;52.102;5.776;2022-11-04T01:56:28;1.95;;;0.85;;
36989;SDS011;22898;52.102;5.776;2022-11-04T01:58:56;0.70;;;0.70;;
36989;SDS011;22898;52.102;5.776;2022-11-04T02:01:27;2.90;;;1.25;;
36989;SDS011;22898;52.102;5.776;2022-11-04T02:03:59;0.80;;;0.80;;
36989;SDS011;22898;52.102;5.776;2022-11-04T02:06:48;0.90;;;0.90;;
36989;SDS011;22898;52.102;5.776;2022-11-04T02:09:15;0.77;;;0.77;;
36989;SDS011;22898;52.102;5.776;2022-11-04T02:11:42;0.80;;;0.80;;
36989;SDS011;22898;52.102;5.776;2022-11-04T02:14:26;0.80;;;0.80;;
36989;SDS011;22898;52.102;5.776;2022-11-04T02:16:54;1.17;;;1.08;;
36989;SDS011;22898;52.102;5.776;2022-11-04T02:25:32;0.90;;;0.90;;
36989;SDS011;22898;52.102;5.776;2022-11-04T02:30:53;1.13;;;1.02;;
36989;SDS011;22898;52.102;5.776;2022-11-04T02:34:03;0.90;;;0.90;;
36989;SDS011;22898;52.102;5.776;2022-11-04T02:42:30;0.90;;;0.90;;
36989;SDS011;22898;52.102;5.776;2022-11-04T02:45:13;1.35;;;1.25;;
36989;SDS011;22898;52.102;5.776;2022-11-04T02:47:50;1.15;;;1.05;;
36989;SDS011;22898;52.102;5.776;2022-11-04T02:50:44;1.30;;;1.10;;
36989;SDS011;22898;52.102;5.776;2022-11-04T02:53:29;1.48;;;1.27;;
36989;SDS011;22898;52.102;5.776;2022-11-04T02:56:16;1.27;;;1.17;;
36989;SDS011;22898;52.102;5.776;2022-11-04T02:58:47;2.35;;;1.45;;
36989;SDS011;22898;52.102;5.776;2022-11-04T03:01:21;1.63;;;1.52;;
36989;SDS011;22898;52.102;5.776;2022-11-04T03:03:50;2.47;;;1.90;;
36989;SDS011;22898;52.102;5.776;2022-11-04T03:06:22;0.95;;;0.93;;
36989;SDS011;22898;52.102;5.776;2022-11-04T03:08:50;1.40;;;1.30;;
36989;SDS011;22898;52.102;5.776;2022-11-04T03:11:18;1.42;;;1.30;;
36989;SDS011;22898;52.102;5.776;2022-11-04T03:14:04;1.42;;;1.23;;
36989;SDS011;22898;52.102;5.776;2022-11-04T03:16:38;1.70;;;1.33;;
36989;SDS011;22898;52.102;5.776;2022-11-04T03:22:12;1.98;;;1.77;;
36989;SDS011;22898;52.102;5.776;2022-11-04T03:24:42;1.45;;;1.35;;
36989;SDS011;22898;52.102;5.776;2022-11-04T03:27:17;2.70;;;2.00;;
36989;SDS011;22898;52.102;5.776;2022-11-04T03:35:19;2.47;;;1.83;;
36989;SDS011;22898;52.102;5.776;2022-11-04T03:37:45;3.20;;;2.70;;
36989;SDS011;22898;52.102;5.776;2022-11-04T03:40:13;2.97;;;1.95;;
36989;SDS011;22898;52.102;5.776;2022-11-04T03:42:44;2.20;;;1.83;;
36989;SDS011;22898;52.102;5.776;2022-11-04T03:45:13;3.05;;;2.55;;
36989;SDS011;22898;52.102;5.776;2022-11-04T03:47:39;3.25;;;2.08;;
36989;SDS011;22898;52.102;5.776;2022-11-04T03:50:10;3.42;;;3.08;;
36989;SDS011;22898;52.102;5.776;2022-11-04T03:52:42;3.60;;;3.28;;
36989;SDS011;22898;52.102;5.776;2022-11-04T03:55:07;4.32;;;3.28;;
36989;SDS011;22898;52.102;5.776;2022-11-04T04:02:48;5.22;;;3.30;;
36989;SDS011;22898;52.102;5.776;2022-11-04T04:10:51;4.70;;;3.53;;
36989;SDS011;22898;52.102;5.776;2022-11-04T04:13:44;2.90;;;2.58;;
36989;SDS011;22898;52.102;5.776;2022-11-04T04:16:14;3.33;;;2.50;;
36989;SDS011;22898;52.102;5.776;2022-11-04T04:19:01;6.05;;;4.63;;
36989;SDS011;22898;52.102;5.776;2022-11-04T04:21:59;9.82;;;4.97;;
36989;SDS011;22898;52.102;5.776;2022-11-04T04:24:32;7.45;;;4.97;;
36989;SDS011;22898;52.102;5.776;2022-11-04T04:27:21;9.02;;;5.93;;
36989;SDS011;22898;52.102;5.776;2022-11-04T04:30:06;7.97;;;5.70;;
36989;SDS011;22898;52.102;5.776;2022-11-04T04:32:42;4.13;;;3.72;;
36989;SDS011;22898;52.102;5.776;2022-11-04T04:35:14;9.98;;;6.18;;
36989;SDS011;22898;52.102;5.776;2022-11-04T04:38:00;7.97;;;4.95;;
36989;SDS011;22898;52.102;5.776;2022-11-04T04:40:49;4.75;;;3.75;;
36989;SDS011;22898;52.102;5.776;2022-11-04T04:43:38;6.53;;;4.72;;
36989;SDS011;22898;52.102;5.776;2022-11-04T04:46:25;16.55;;;3.35;;
36989;SDS011;22898;52.102;5.776;2022-11-04T04:49:02;7.70;;;4.10;;
36989;SDS011;22898;52.102;5.776;2022-11-04T04:51:32;7.15;;;4.90;;
36989;SDS011;22898;52.102;5.776;2022-11-04T04:54:02;4.30;;;3.90;;
36989;SDS011;22898;52.102;5.776;2022-11-04T04:56:28;6.63;;;4.15;;
36989;SDS011;22898;52.102;5.776;2022-11-04T04:58:54;7.07;;;4.78;;
36989;SDS011;22898;52.102;5.776;2022-11-04T05:01:19;4.55;;;4.15;;
36989;SDS011;22898;52.102;5.776;2022-11-04T05:03:45;6.60;;;5.28;;
36989;SDS011;22898;52.102;5.776;2022-11-04T05:06:10;4.28;;;3.55;;
36989;SDS011;22898;52.102;5.776;2022-11-04T05:08:36;9.15;;;4.95;;
36989;SDS011;22898;52.102;5.776;2022-11-04T05:11:02;4.32;;;3.80;;
36989;SDS011;22898;52.102;5.776;2022-11-04T05:13:27;8.98;;;4.55;;
36989;SDS011;22898;52.102;5.776;2022-11-04T05:15:56;3.78;;;3.20;;
36989;SDS011;22898;52.102;5.776;2022-11-04T05:18:27;5.18;;;3.58;;
36989;SDS011;22898;52.102;5.776;2022-11-04T05:20:52;6.05;;;4.40;;
36989;SDS011;22898;52.102;5.776;2022-11-04T05:23:18;3.92;;;3.38;;
36989;SDS011;22898;52.102;5.776;2022-11-04T05:25:43;6.07;;;4.18;;
36989;SDS011;22898;52.102;5.776;2022-11-04T05:28:09;4.35;;;3.63;;
36989;SDS011;22898;52.102;5.776;2022-11-04T05:30:35;3.58;;;3.03;;
36989;SDS011;22898;52.102;5.776;2022-11-04T05:33:01;2.63;;;2.08;;
36989;SDS011;22898;52.102;5.776;2022-11-04T05:35:26;4.53;;;2.70;;
36989;SDS011;22898;52.102;5.776;2022-11-04T05:37:53;6.55;;;3.83;;
36989;SDS011;22898;52.102;5.776;2022-11-04T05:40:20;3.42;;;2.55;;
36989;SDS011;22898;52.102;5.776;2022-11-04T05:42:45;3.08;;;2.72;;
36989;SDS011;22898;52.102;5.776;2022-11-04T05:45:11;2.88;;;2.55;;
36989;SDS011;22898;52.102;5.776;2022-11-04T05:47:36;2.22;;;2.03;;
36989;SDS011;22898;52.102;5.776;2022-11-04T05:50:05;2.65;;;2.28;;
36989;SDS011;22898;52.102;5.776;2022-11-04T05:52:31;3.38;;;2.10;;
36989;SDS011;22898;52.102;5.776;2022-11-04T05:54:57;3.15;;;2.88;;
36989;SDS011;22898;52.102;5.776;2022-11-04T05:57:22;2.95;;;2.67;;
36989;SDS011;22898;52.102;5.776;2022-11-04T05:59:48;4.45;;;3.35;;
36989;SDS011;22898;52.102;5.776;2022-11-04T06:02:14;3.58;;;1.95;;
36989;SDS011;22898;52.102;5.776;2022-11-04T06:04:39;2.35;;;2.10;;
36989;SDS011;22898;52.102;5.776;2022-11-04T06:07:05;4.10;;;3.58;;
36989;SDS011;22898;52.102;5.776;2022-11-04T06:09:31;1.85;;;1.63;;
36989;SDS011;22898;52.102;5.776;2022-11-04T06:12:12;2.95;;;2.60;;
36989;SDS011;22898;52.102;5.776;2022-11-04T06:14:42;3.72;;;1.60;;
36989;SDS011;22898;52.102;5.776;2022-11-04T06:17:18;2.85;;;2.63;;
36989;SDS011;22898;52.102;5.776;2022-11-04T06:19:45;3.75;;;2.55;;
36989;SDS011;22898;52.102;5.776;2022-11-04T06:22:11;3.30;;;2.22;;
36989;SDS011;22898;52.102;5.776;2022-11-04T06:24:38;2.72;;;2.25;;
36989;SDS011;22898;52.102;5.776;2022-11-04T06:27:04;2.22;;;1.60;;
36989;SDS011;22898;52.102;5.776;2022-11-04T06:29:29;4.22;;;2.85;;
36989;SDS011;22898;52.102;5.776;2022-11-04T06:31:56;2.20;;;1.67;;
36989;SDS011;22898;52.102;5.776;2022-11-04T06:34:21;2.40;;;2.20;;
36989;SDS011;22898;52.102;5.776;2022-11-04T06:36:47;5.03;;;3.20;;
36989;SDS011;22898;52.102;5.776;2022-11-04T06:39:13;5.05;;;3.72;;
36989;SDS011;22898;52.102;5.776;2022-11-04T06:41:39;3.03;;;2.47;;
36989;SDS011;22898;52.102;5.776;2022-11-04T06:44:05;3.38;;;2.45;;
36989;SDS011;22898;52.102;5.776;2022-11-04T06:46:40;5.35;;;2.50;;
36989;SDS011;22898;52.102;5.776;2022-11-04T06:49:11;2.28;;;1.95;;
36989;SDS011;22898;52.102;5.776;2022-11-04T06:51:38;7.30;;;2.30;;
36989;SDS011;22898;52.102;5.776;2022-11-04T06:54:03;3.50;;;2.70;;
36989;SDS011;22898;52.102;5.776;2022-11-04T06:56:29;2.45;;;2.17;;
36989;SDS011;22898;52.102;5.776;2022-11-04T06:58:55;2.67;;;2.40;;
36989;SDS011;22898;52.102;5.776;2022-11-04T07:01:22;3.17;;;2.22;;
36989;SDS011;22898;52.102;5.776;2022-11-04T07:03:54;1.70;;;1.60;;
36989;SDS011;22898;52.102;5.776;2022-11-04T07:06:21;2.65;;;2.35;;
36989;SDS011;22898;52.102;5.776;2022-11-04T07:08:47;1.40;;;1.30;;
36989;SDS011;22898;52.102;5.776;2022-11-04T07:11:15;2.38;;;2.17;;
36989;SDS011;22898;52.102;5.776;2022-11-04T07:13:41;1.77;;;1.50;;
36989;SDS011;22898;52.102;5.776;2022-11-04T07:16:07;1.23;;;1.13;;
36989;SDS011;22898;52.102;5.776;2022-11-04T07:18:33;3.78;;;2.63;;
36989;SDS011;22898;52.102;5.776;2022-11-04T07:20:58;1.55;;;1.45;;
36989;SDS011;22898;52.102;5.776;2022-11-04T07:23:24;2.47;;;1.90;;
36989;SDS011;22898;52.102;5.776;2022-11-04T07:25:50;2.35;;;1.77;;
36989;SDS011;22898;52.102;5.776;2022-11-04T07:28:18;1.30;;;1.20;;
36989;SDS011;22898;52.102;5.776;2022-11-04T07:30:44;3.20;;;2.42;;
36989;SDS011;22898;52.102;5.776;2022-11-04T07:33:09;2.92;;;2.65;;
36989;SDS011;22898;52.102;5.776;2022-11-04T07:35:35;2.00;;;1.35;;
36989;SDS011;22898;52.102;5.776;2022-11-04T07:38:01;1.70;;;1.48;;
36989;SDS011;22898;52.102;5.776;2022-11-04T07:40:28;1.40;;;1.25;;
36989;SDS011;22898;52.102;5.776;2022-11-04T07:42:54;1.60;;;1.50;;
36989;SDS011;22898;52.102;5.776;2022-11-04T07:45:20;1.65;;;1.55;;
36989;SDS011;22898;52.102;5.776;2022-11-04T07:47:45;1.52;;;1.42;;
36989;SDS011;22898;52.102;5.776;2022-11-04T07:50:11;2.42;;;2.22;;
36989;SDS011;22898;52.102;5.776;2022-11-04T07:52:37;3.40;;;1.77;;
36989;SDS011;22898;52.102;5.776;2022-11-04T07:55:03;2.45;;;1.58;;
36989;SDS011;22898;52.102;5.776;2022-11-04T07:57:29;2.08;;;1.77;;
36989;SDS011;22898;52.102;5.776;2022-11-04T07:59:55;2.15;;;1.60;;
36989;SDS011;22898;52.102;5.776;2022-11-04T08:02:20;2.53;;;1.65;;
36989;SDS011;22898;52.102;5.776;2022-11-04T08:04:46;6.32;;;1.98;;
36989;SDS011;22898;52.102;5.776;2022-11-04T08:07:11;2.88;;;1.33;;
36989;SDS011;22898;52.102;5.776;2022-11-04T08:09:39;1.48;;;1.38;;
36989;SDS011;22898;52.102;5.776;2022-11-04T08:12:05;2.45;;;1.95;;
36989;SDS011;22898;52.102;5.776;2022-11-04T08:14:31;1.98;;;1.42;;
36989;SDS011;22898;52.102;5.776;2022-11-04T08:16:56;1.30;;;1.20;;
36989;SDS011;22898;52.102;5.776;2022-11-04T08:19:22;1.90;;;1.60;;
36989;SDS011;22898;52.102;5.776;2022-11-04T08:21:48;2.20;;;2.00;;
36989;SDS011;22898;52.102;5.776;2022-11-04T08:24:14;1.52;;;1.33;;
36989;SDS011;22898;52.102;5.776;2022-11-04T08:26:40;2.20;;;1.88;;
36989;SDS011;22898;52.102;5.776;2022-11-04T08:29:06;2.47;;;1.92;;
36989;SDS011;22898;52.102;5.776;2022-11-04T08:31:32;1.33;;;1.23;;
36989;SDS011;22898;52.102;5.776;2022-11-04T08:33:58;1.63;;;1.25;;
36989;SDS011;22898;52.102;5.776;2022-11-04T08:36:29;2.65;;;2.17;;
36989;SDS011;22898;52.102;5.776;2022-11-04T08:39:00;1.60;;;1.30;;
36989;SDS011;22898;52.102;5.776;2022-11-04T08:41:29;1.80;;;1.70;;
36989;SDS011;22898;52.102;5.776;2022-11-04T08:43:57;2.03;;;1.70;;
36989;SDS011;22898;52.102;5.776;2022-11-04T08:46:25;2.65;;;1.85;;
36989;SDS011;22898;52.102;5.776;2022-11-04T08:48:52;1.98;;;1.52;;
36989;SDS011;22898;52.102;5.776;2022-11-04T08:51:21;3.80;;;1.63;;
36989;SDS011;22898;52.102;5.776;2022-11-04T08:53:49;1.95;;;1.67;;
36989;SDS011;22898;52.102;5.776;2022-11-04T08:56:16;3.40;;;1.27;;
36989;SDS011;22898;52.102;5.776;2022-11-04T08:58:53;1.33;;;1.23;;
36989;SDS011;22898;52.102;5.776;2022-11-04T09:01:19;1.85;;;1.73;;
36989;SDS011;22898;52.102;5.776;2022-11-04T09:03:46;1.63;;;1.38;;
36989;SDS011;22898;52.102;5.776;2022-11-04T09:06:13;4.82;;;2.13;;
36989;SDS011;22898;52.102;5.776;2022-11-04T09:08:43;1.90;;;1.77;;
36989;SDS011;22898;52.102;5.776;2022-11-04T09:11:10;1.80;;;1.65;;
36989;SDS011;22898;52.102;5.776;2022-11-04T09:13:37;2.40;;;2.20;;
36989;SDS011;22898;52.102;5.776;2022-11-04T09:16:04;1.67;;;1.58;;
36989;SDS011;22898;52.102;5.776;2022-11-04T09:18:30;4.05;;;1.90;;
36989;SDS011;22898;52.102;5.776;2022-11-04T09:20:59;3.10;;;1.90;;
36989;SDS011;22898;52.102;5.776;2022-11-04T09:23:26;3.05;;;2.53;;
36989;SDS011;22898;52.102;5.776;2022-11-04T09:25:52;3.10;;;2.45;;
36989;SDS011;22898;52.102;5.776;2022-11-04T09:28:19;2.58;;;2.25;;
36989;SDS011;22898;52.102;5.776;2022-11-04T09:30:45;3.42;;;2.92;;
36989;SDS011;22898;52.102;5.776;2022-11-04T09:33:10;6.18;;;3.33;;
36989;SDS011;22898;52.102;5.776;2022-11-04T09:35:36;2.78;;;2.35;;
36989;SDS011;22898;52.102;5.776;2022-11-04T09:38:03;3.45;;;2.30;;
36989;SDS011;22898;52.102;5.776;2022-11-04T09:40:28;6.00;;;1.90;;
36989;SDS011;22898;52.102;5.776;2022-11-04T09:43:02;1.88;;;1.77;;
36989;SDS011;22898;52.102;5.776;2022-11-04T09:45:33;3.50;;;1.88;;
36989;SDS011;22898;52.102;5.776;2022-11-04T09:48:03;2.45;;;2.15;;
36989;SDS011;22898;52.102;5.776;2022-11-04T09:50:40;2.92;;;2.33;;
36989;SDS011;22898;52.102;5.776;2022-11-04T09:53:20;2.20;;;2.00;;
36989;SDS011;22898;52.102;5.776;2022-11-04T09:58:32;8.07;;;2.70;;
36989;SDS011;22898;52.102;5.776;2022-11-04T10:03:40;3.22;;;2.55;;
36989;SDS011;22898;52.102;5.776;2022-11-04T10:06:21;5.25;;;2.67;;
36989;SDS011;22898;52.102;5.776;2022-11-04T10:22:52;4.22;;;2.95;;
36989;SDS011;22898;52.102;5.776;2022-11-04T10:25:27;5.93;;;3.45;;
36989;SDS011;22898;52.102;5.776;2022-11-04T10:28:19;4.47;;;2.28;;
36989;SDS011;22898;52.102;5.776;2022-11-04T10:30:53;10.10;;;3.20;;
36989;SDS011;22898;52.102;5.776;2022-11-04T10:35:50;3.10;;;2.80;;
36989;SDS011;22898;52.102;5.776;2022-11-04T10:40:51;3.85;;;2.97;;
36989;SDS011;22898;52.102;5.776;2022-11-04T10:43:30;4.95;;;3.45;;
36989;SDS011;22898;52.102;5.776;2022-11-04T10:46:08;4.78;;;2.97;;
36989;SDS011;22898;52.102;5.776;2022-11-04T10:48:59;3.50;;;2.78;;
36989;SDS011;22898;52.102;5.776;2022-11-04T10:51:40;3.38;;;2.58;;
36989;SDS011;22898;52.102;5.776;2022-11-04T10:54:06;2.67;;;2.38;;
36989;SDS011;22898;52.102;5.776;2022-11-04T10:59:28;3.10;;;2.65;;
36989;SDS011;22898;52.102;5.776;2022-11-04T11:07:46;2.88;;;2.65;;
36989;SDS011;22898;52.102;5.776;2022-11-04T11:12:52;3.30;;;2.42;;
36989;SDS011;22898;52.102;5.776;2022-11-04T11:18:05;3.97;;;3.17;;
36989;SDS011;22898;52.102;5.776;2022-11-04T11:20:35;3.22;;;2.85;;
36989;SDS011;22898;52.102;5.776;2022-11-04T11:23:02;5.35;;;2.95;;
36989;SDS011;22898;52.102;5.776;2022-11-04T11:25:34;4.95;;;3.88;;
36989;SDS011;22898;52.102;5.776;2022-11-04T11:28:05;4.55;;;3.45;;
36989;SDS011;22898;52.102;5.776;2022-11-04T11:33:04;4.88;;;3.85;;
36989;SDS011;22898;52.102;5.776;2022-11-04T11:35:40;5.15;;;4.22;;
36989;SDS011;22898;52.102;5.776;2022-11-04T11:38:17;3.35;;;2.58;;
36989;SDS011;22898;52.102;5.776;2022-11-04T11:40:52;3.17;;;2.72;;
36989;SDS011;22898;52.102;5.776;2022-11-04T11:43:55;6.10;;;3.08;;
36989;SDS011;22898;52.102;5.776;2022-11-04T11:46:47;6.72;;;3.63;;
36989;SDS011;22898;52.102;5.776;2022-11-04T11:49:27;4.43;;;3.25;;
36989;SDS011;22898;52.102;5.776;2022-11-04T11:51:55;3.17;;;2.88;;
36989;SDS011;22898;52.102;5.776;2022-11-04T11:54:41;3.47;;;2.47;;
36989;SDS011;22898;52.102;5.776;2022-11-04T11:57:59;3.20;;;2.67;;
36989;SDS011;22898;52.102;5.776;2022-11-04T12:00:11;4.53;;;3.30;;
36989;SDS011;22898;52.102;5.776;2022-11-04T12:02:44;6.30;;;3.88;;
36989;SDS011;22898;52.102;5.776;2022-11-04T12:05:31;4.95;;;4.15;;
36989;SDS011;22898;52.102;5.776;2022-11-04T12:11:14;8.20;;;4.95;;
36989;SDS011;22898;52.102;5.776;2022-11-04T12:13:52;4.05;;;3.65;;
36989;SDS011;22898;52.102;5.776;2022-11-04T12:25:11;8.25;;;3.90;;
36989;SDS011;22898;52.102;5.776;2022-11-04T12:27:47;6.45;;;2.67;;
36989;SDS011;22898;52.102;5.776;2022-11-04T12:30:23;4.85;;;3.03;;
36989;SDS011;22898;52.102;5.776;2022-11-04T12:35:31;5.45;;;4.10;;
36989;SDS011;22898;52.102;5.776;2022-11-04T12:38:16;3.88;;;3.47;;
36989;SDS011;22898;52.102;5.776;2022-11-04T12:44:02;3.75;;;2.65;;
36989;SDS011;22898;52.102;5.776;2022-11-04T12:52:07;4.25;;;3.55;;
36989;SDS011;22898;52.102;5.776;2022-11-04T13:00:17;5.30;;;3.85;;
36989;SDS011;22898;52.102;5.776;2022-11-04T13:02:49;4.63;;;3.90;;
36989;SDS011;22898;52.102;5.776;2022-11-04T13:05:32;2.67;;;2.28;;
36989;SDS011;22898;52.102;5.776;2022-11-04T13:08:23;3.60;;;3.22;;
36989;SDS011;22898;52.102;5.776;2022-11-04T13:10:54;3.03;;;2.72;;
36989;SDS011;22898;52.102;5.776;2022-11-04T13:13:31;4.57;;;2.67;;
36989;SDS011;22898;52.102;5.776;2022-11-04T13:16:08;6.10;;;3.03;;
36989;SDS011;22898;52.102;5.776;2022-11-04T13:18:36;4.13;;;2.90;;
36989;SDS011;22898;52.102;5.776;2022-11-04T13:21:06;3.17;;;2.72;;
36989;SDS011;22898;52.102;5.776;2022-11-04T13:24:00;5.85;;;3.53;;
36989;SDS011;22898;52.102;5.776;2022-11-04T13:26:29;4.90;;;3.75;;
36989;SDS011;22898;52.102;5.776;2022-11-04T13:29:00;3.92;;;2.67;;
36989;SDS011;22898;52.102;5.776;2022-11-04T13:34:09;3.45;;;2.67;;
36989;SDS011;22898;52.102;5.776;2022-11-04T13:39:46;4.05;;;3.17;;
36989;SDS011;22898;52.102;5.776;2022-11-04T13:45:12;2.53;;;2.33;;
36989;SDS011;22898;52.102;5.776;2022-11-04T13:47:48;5.90;;;4.03;;
36989;SDS011;22898;52.102;5.776;2022-11-04T13:50:36;4.15;;;3.58;;
36989;SDS011;22898;52.102;5.776;2022-11-04T13:53:04;4.47;;;2.78;;
36989;SDS011;22898;52.102;5.776;2022-11-04T13:55:33;5.32;;;4.20;;
36989;SDS011;22898;52.102;5.776;2022-11-04T13:58:00;4.35;;;3.92;;
36989;SDS011;22898;52.102;5.776;2022-11-04T14:00:31;4.70;;;3.40;;
36989;SDS011;22898;52.102;5.776;2022-11-04T14:02:59;4.22;;;3.05;;
36989;SDS011;22898;52.102;5.776;2022-11-04T14:06:00;5.32;;;3.95;;
36989;SDS011;22898;52.102;5.776;2022-11-04T14:08:29;3.08;;;2.65;;
36989;SDS011;22898;52.102;5.776;2022-11-04T14:16:08;3.40;;;2.80;;
36989;SDS011;22898;52.102;5.776;2022-11-04T14:18:50;1.58;;;1.48;;
36989;SDS011;22898;52.102;5.776;2022-11-04T14:23:53;0.82;;;0.82;;
36989;SDS011;22898;52.102;5.776;2022-11-04T14:26:22;5.88;;;1.70;;
36989;SDS011;22898;52.102;5.776;2022-11-04T14:29:00;1.02;;;1.02;;
36989;SDS011;22898;52.102;5.776;2022-11-04T14:31:37;1.10;;;1.00;;
36989;SDS011;22898;52.102;5.776;2022-11-04T14:34:04;1.25;;;0.90;;
36989;SDS011;22898;52.102;5.776;2022-11-04T14:39:03;0.90;;;0.90;;
36989;SDS011;22898;52.102;5.776;2022-11-04T14:46:52;0.80;;;0.80;;
36989;SDS011;22898;52.102;5.776;2022-11-04T14:52:36;4.72;;;1.60;;
36989;SDS011;22898;52.102;5.776;2022-11-04T15:03:35;1.10;;;1.10;;
36989;SDS011;22898;52.102;5.776;2022-11-04T15:06:02;2.13;;;1.92;;
36989;SDS011;22898;52.102;5.776;2022-11-04T15:11:11;4.15;;;2.92;;
36989;SDS011;22898;52.102;5.776;2022-11-04T15:13:45;6.70;;;3.83;;
36989;SDS011;22898;52.102;5.776;2022-11-04T15:16:23;4.97;;;3.45;;
36989;SDS011;22898;52.102;5.776;2022-11-04T15:18:51;6.25;;;4.32;;
36989;SDS011;22898;52.102;5.776;2022-11-04T15:21:20;3.53;;;2.57;;
36989;SDS011;22898;52.102;5.776;2022-11-04T15:23:46;4.25;;;3.75;;
36989;SDS011;22898;52.102;5.776;2022-11-04T15:26:20;2.13;;;1.92;;
36989;SDS011;22898;52.102;5.776;2022-11-04T15:28:50;3.13;;;2.83;;
36989;SDS011;22898;52.102;5.776;2022-11-04T15:31:19;2.88;;;2.45;;
36989;SDS011;22898;52.102;5.776;2022-11-04T15:33:47;2.80;;;2.38;;
36989;SDS011;22898;52.102;5.776;2022-11-04T15:36:19;2.72;;;2.08;;
36989;SDS011;22898;52.102;5.776;2022-11-04T15:38:51;1.63;;;1.52;;
36989;SDS011;22898;52.102;5.776;2022-11-04T15:41:22;2.73;;;2.00;;
36989;SDS011;22898;52.102;5.776;2022-11-04T15:46:50;1.30;;;1.20;;
36989;SDS011;22898;52.102;5.776;2022-11-04T15:49:27;1.92;;;1.70;;
36989;SDS011;22898;52.102;5.776;2022-11-04T15:51:57;0.95;;;0.95;;
36989;SDS011;22898;52.102;5.776;2022-11-04T15:54:26;3.03;;;2.28;;
36989;SDS011;22898;52.102;5.776;2022-11-04T15:56:56;1.00;;;1.00;;
36989;SDS011;22898;52.102;5.776;2022-11-04T16:01:57;4.45;;;2.67;;
36989;SDS011;22898;52.102;5.776;2022-11-04T16:04:25;5.00;;;3.00;;
36989;SDS011;22898;52.102;5.776;2022-11-04T16:09:51;1.75;;;1.55;;
36989;SDS011;22898;52.102;5.776;2022-11-04T16:14:51;1.40;;;1.30;;
36989;SDS011;22898;52.102;5.776;2022-11-04T16:17:20;1.42;;;1.33;;
36989;SDS011;22898;52.102;5.776;2022-11-04T16:19:48;1.98;;;1.50;;
36989;SDS011;22898;52.102;5.776;2022-11-04T16:22:18;2.67;;;2.42;;
36989;SDS011;22898;52.102;5.776;2022-11-04T16:24:47;1.27;;;1.17;;
36989;SDS011;22898;52.102;5.776;2022-11-04T16:27:18;2.15;;;1.80;;
36989;SDS011;22898;52.102;5.776;2022-11-04T16:29:53;3.42;;;2.65;;
36989;SDS011;22898;52.102;5.776;2022-11-04T16:32:29;4.88;;;3.15;;
36989;SDS011;22898;52.102;5.776;2022-11-04T16:35:04;3.53;;;2.13;;
36989;SDS011;22898;52.102;5.776;2022-11-04T16:37:37;2.72;;;2.28;;
36989;SDS011;22898;52.102;5.776;2022-11-04T16:40:03;2.15;;;1.77;;
36989;SDS011;22898;52.102;5.776;2022-11-04T16:42:31;2.00;;;1.73;;
36989;SDS011;22898;52.102;5.776;2022-11-04T16:44:58;2.15;;;1.70;;
36989;SDS011;22898;52.102;5.776;2022-11-04T16:47:25;2.70;;;2.28;;
36989;SDS011;22898;52.102;5.776;2022-11-04T16:49:53;4.05;;;3.05;;
36989;SDS011;22898;52.102;5.776;2022-11-04T16:52:25;5.13;;;3.72;;
36989;SDS011;22898;52.102;5.776;2022-11-04T16:54:51;2.97;;;2.67;;
36989;SDS011;22898;52.102;5.776;2022-11-04T16:57:21;4.15;;;2.67;;
36989;SDS011;22898;52.102;5.776;2022-11-04T16:59:47;4.20;;;2.30;;
36989;SDS011;22898;52.102;5.776;2022-11-04T17:02:15;2.13;;;1.92;;
36989;SDS011;22898;52.102;5.776;2022-11-04T17:04:45;6.47;;;3.92;;
36989;SDS011;22898;52.102;5.776;2022-11-04T17:07:11;8.63;;;6.18;;
36989;SDS011;22898;52.102;5.776;2022-11-04T17:09:37;4.55;;;3.97;;
36989;SDS011;22898;52.102;5.776;2022-11-04T17:12:03;3.78;;;2.70;;
36989;SDS011;22898;52.102;5.776;2022-11-04T17:14:29;4.63;;;3.97;;
36989;SDS011;22898;52.102;5.776;2022-11-04T17:16:55;3.20;;;2.25;;
36989;SDS011;22898;52.102;5.776;2022-11-04T17:19:21;4.22;;;3.03;;
36989;SDS011;22898;52.102;5.776;2022-11-04T17:21:46;2.85;;;2.22;;
36989;SDS011;22898;52.102;5.776;2022-11-04T17:24:12;2.10;;;1.90;;
36989;SDS011;22898;52.102;5.776;2022-11-04T17:26:38;2.08;;;1.80;;
36989;SDS011;22898;52.102;5.776;2022-11-04T17:29:04;3.15;;;2.42;;
36989;SDS011;22898;52.102;5.776;2022-11-04T17:31:30;2.10;;;1.90;;
36989;SDS011;22898;52.102;5.776;2022-11-04T17:33:56;2.47;;;2.05;;
36989;SDS011;22898;52.102;5.776;2022-11-04T17:36:22;1.63;;;1.52;;
36989;SDS011;22898;52.102;5.776;2022-11-04T17:38:48;2.22;;;2.03;;
36989;SDS011;22898;52.102;5.776;2022-11-04T17:41:13;3.75;;;2.88;;
36989;SDS011;22898;52.102;5.776;2022-11-04T17:43:57;3.05;;;2.75;;
36989;SDS011;22898;52.102;5.776;2022-11-04T17:46:29;3.53;;;3.00;;